Jupiter Spirit — A8ZC2 — position and weather

sailwx.info

Track history (hours):
 
Tides and Currents Weather Stations Pressure Air Temp Water Temp Dewpoint Dewpoint Depression Visibility Wind Speed Wind Dir Waves Ship Positions

Jupiter Spirit

Last reported at 2016-Feb-12 07:29 UTC. Time now 2016-Feb-13 00:31 UTC.
Position N 37°34' W 123°52'.

Length 183 m; draft 7.8 m.

Type: Cargo ship. MMSI: 636015173.

Date/timePositionNaut miles runAvg speedWind from/ knotsBaromVisibWave heightAir tempDewpointWater temp
2016-Feb-12 07:29N 37°34' W 123°52'1212.6
2016-Feb-12 06:34N 37°35' W 123°37'1312.7
2016-Feb-12 05:33N 37°34' W 123°21'1514.8
2016-Feb-12 04:33N 37°35' W 123°02'1615.8
2016-Feb-12 03:33N 37°43' W 122°45'1313.5
2016-Feb-12 02:34N 37°49' W 122°30'8 8.1
2016-Feb-12 01:33N 37°54' W 122°22'0 0.4
2016-Feb-12 00:33N 37°54' W 122°22'0 0.0
2016-Feb-11 23:33N 37°54' W 122°22'0 0.0
2016-Feb-11 22:33N 37°54' W 122°22'0 0.0
2016-Feb-11 21:33N 37°54' W 122°22'0 0.0
2016-Feb-11 20:33N 37°54' W 122°22'0 0.0
2016-Feb-11 19:33N 37°54' W 122°22'0 0.0
2016-Feb-11 18:33N 37°54' W 122°22'0 0.0
2016-Feb-11 17:33N 37°54' W 122°22'0 0.0
2016-Feb-11 16:27N 37°54' W 122°22'0 0.0
2016-Feb-11 15:30N 37°54' W 122°22'0 0.0
2016-Feb-11 14:30N 37°54' W 122°22'0 0.0
2016-Feb-11 13:30N 37°54' W 122°22'0 0.0
2016-Feb-11 12:33N 37°54' W 122°22'0 0.0
2016-Feb-11 11:33N 37°54' W 122°22'0 0.0
2016-Feb-11 10:33N 37°54' W 122°22'0 0.0
2016-Feb-11 09:33N 37°54' W 122°22'0 0.0
2016-Feb-11 08:33N 37°54' W 122°22'0 0.0
2016-Feb-11 07:33N 37°54' W 122°22'0 0.0
2016-Feb-11 06:33N 37°54' W 122°22'0 0.0
2016-Feb-11 05:30N 37°54' W 122°22'0 0.0
2016-Feb-11 04:30N 37°54' W 122°22'0 0.0
2016-Feb-11 03:33N 37°54' W 122°22'0 0.0
2016-Feb-11 02:27N 37°54' W 122°22'0 0.0
2016-Feb-11 01:33N 37°54' W 122°22'3 3.3
2016-Feb-11 00:33N 37°52' W 122°25'8 8.3
2016-Feb-10 23:33N 37°47' W 122°33'10 9.6
2016-Feb-10 22:33N 37°46' W 122°45'9 8.9
2016-Feb-10 21:33N 37°50' W 122°55'1010.3
2016-Feb-10 20:33N 37°56' W 123°07'1010.4
2016-Feb-10 19:33N 38°03' W 123°16'1110.6
2016-Feb-10 18:33N 38°11' W 123°24'1010.6
2016-Feb-10 17:33N 38°21' W 123°30'8 8.1
2016-Feb-10 16:33N 38°28' W 123°35'1211.9
2016-Feb-10 15:33N 38°38' W 123°42'1211.6
2016-Feb-10 14:32N 38°49' W 123°49'1412.2
2016-Feb-10 13:24N 39°01' W 123°57'36513.1
2016-Feb-09 09:29N 45°06' W 124°33'1414.9
2016-Feb-09 08:33N 45°19' W 124°29'1514.8
2016-Feb-09 07:34N 45°34' W 124°25'1514.8
2016-Feb-09 06:33N 45°48' W 124°22'1515.2
2016-Feb-09 05:34N 46°03' W 124°18'1413.8
2016-Feb-09 04:33N 46°15' W 124°06'1212.4
2016-Feb-09 03:33N 46°12' W 123°48'1514.7
2016-Feb-09 02:34N 46°16' W 123°28'1212.0
2016-Feb-09 01:34N 46°10' W 123°13'1313.2
2016-Feb-09 00:34N 46°05' W 122°55'1211.8
2016-Feb-08 23:33N 45°55' W 122°49'1413.6
2016-Feb-08 22:33N 45°41' W 122°47'3 3.4
2016-Feb-08 21:31N 45°38' W 122°43'0 0.0
2016-Feb-08 20:28N 45°38' W 122°43'0 0.0
2016-Feb-08 19:31N 45°38' W 122°43'0 0.0
2016-Feb-08 18:28N 45°38' W 122°43'0 0.0
2016-Feb-08 17:25N 45°38' W 122°43'0 0.0
2016-Feb-08 16:31N 45°38' W 122°43'0 0.0
2016-Feb-08 15:16N 45°38' W 122°43'0 0.0
2016-Feb-08 14:22N 45°38' W 122°43'0 0.0
2016-Feb-08 13:28N 45°38' W 122°43'0 0.0
2016-Feb-08 12:32N 45°38' W 122°43'4 4.4
2016-Feb-08 11:33N 45°42' W 122°46'1413.7
2016-Feb-08 10:33N 45°56' W 122°48'1211.8
2016-Feb-08 09:33N 46°06' W 122°57'1212.1
2016-Feb-08 08:33N 46°10' W 123°13'9 9.5
2016-Feb-08 07:33N 46°14' W 123°26'1313.3
2016-Feb-08 06:34N 46°13' W 123°45'1111.4
2016-Feb-08 05:34N 46°15' W 124°01'1211.9
2016-Feb-08 04:33N 46°10' W 124°16'6 6.4
2016-Feb-08 03:33N 46°11' W 124°26'7 6.9
2016-Feb-08 02:33N 46°11' W 124°36'1010.3
2016-Feb-08 01:33N 46°10' W 124°50'10 9.9
2016-Feb-08 00:33N 46°11' W 125°05'10 9.6
2016-Feb-07 23:33N 46°12' W 125°19'10 9.5
2016-Feb-07 22:33N 46°12' W 125°32'7 7.3
2016-Feb-07 21:33N 46°12' W 125°43'6 5.9
2016-Feb-07 20:33N 46°12' W 125°51'1110.7
2016-Feb-07 19:33N 46°13' W 126°07'1110.7
2016-Feb-07 18:33N 46°13' W 126°22'1110.6
2016-Feb-07 17:33N 46°14' W 126°38'1410.5
2016-Feb-07 16:13N 46°14' W 126°58'710.7
2016-Feb-07 15:33N 46°14' W 127°08'1110.6
2016-Feb-07 14:33N 46°15' W 127°23'2210.6
2016-Feb-07 12:28N 46°16' W 127°55'1210.3
2016-Feb-07 11:16N 46°16' W 128°13'  
Track history (hours):
 
Tides and Currents Weather Stations Pressure Air Temp Water Temp Dewpoint Dewpoint Depression Visibility Wind Speed Wind Dir Waves Ship Positions

Jupiter Spirit

Last reported at 2016-Feb-12 07:29 UTC. Time now 2016-Feb-13 00:31 UTC.
Position N 37°34' W 123°52'.

Length 183 m; draft 7.8 m.

Type: Cargo ship. MMSI: 636015173.

Date/timePositionNaut miles runAvg speedWind from/ knotsBaromVisibWave heightAir tempDewpointWater temp
2016-Feb-12 07:29N 37°34' W 123°52'1212.6
2016-Feb-12 06:34N 37°35' W 123°37'1312.7
2016-Feb-12 05:33N 37°34' W 123°21'1514.8
2016-Feb-12 04:33N 37°35' W 123°02'1615.8
2016-Feb-12 03:33N 37°43' W 122°45'1313.5
2016-Feb-12 02:34N 37°49' W 122°30'8 8.1
2016-Feb-12 01:33N 37°54' W 122°22'0 0.4
2016-Feb-12 00:33N 37°54' W 122°22'0 0.0
2016-Feb-11 23:33N 37°54' W 122°22'0 0.0
2016-Feb-11 22:33N 37°54' W 122°22'0 0.0
2016-Feb-11 21:33N 37°54' W 122°22'0 0.0
2016-Feb-11 20:33N 37°54' W 122°22'0 0.0
2016-Feb-11 19:33N 37°54' W 122°22'0 0.0
2016-Feb-11 18:33N 37°54' W 122°22'0 0.0
2016-Feb-11 17:33N 37°54' W 122°22'0 0.0
2016-Feb-11 16:27N 37°54' W 122°22'0 0.0
2016-Feb-11 15:30N 37°54' W 122°22'0 0.0
2016-Feb-11 14:30N 37°54' W 122°22'0 0.0
2016-Feb-11 13:30N 37°54' W 122°22'0 0.0
2016-Feb-11 12:33N 37°54' W 122°22'0 0.0
2016-Feb-11 11:33N 37°54' W 122°22'0 0.0
2016-Feb-11 10:33N 37°54' W 122°22'0 0.0
2016-Feb-11 09:33N 37°54' W 122°22'0 0.0
2016-Feb-11 08:33N 37°54' W 122°22'0 0.0
2016-Feb-11 07:33N 37°54' W 122°22'0 0.0
2016-Feb-11 06:33N 37°54' W 122°22'0 0.0
2016-Feb-11 05:30N 37°54' W 122°22'0 0.0
2016-Feb-11 04:30N 37°54' W 122°22'0 0.0
2016-Feb-11 03:33N 37°54' W 122°22'0 0.0
2016-Feb-11 02:27N 37°54' W 122°22'0 0.0
2016-Feb-11 01:33N 37°54' W 122°22'3 3.3
2016-Feb-11 00:33N 37°52' W 122°25'8 8.3
2016-Feb-10 23:33N 37°47' W 122°33'10 9.6
2016-Feb-10 22:33N 37°46' W 122°45'9 8.9
2016-Feb-10 21:33N 37°50' W 122°55'1010.3
2016-Feb-10 20:33N 37°56' W 123°07'1010.4
2016-Feb-10 19:33N 38°03' W 123°16'1110.6
2016-Feb-10 18:33N 38°11' W 123°24'1010.6
2016-Feb-10 17:33N 38°21' W 123°30'8 8.1
2016-Feb-10 16:33N 38°28' W 123°35'1211.9
2016-Feb-10 15:33N 38°38' W 123°42'1211.6
2016-Feb-10 14:32N 38°49' W 123°49'1412.2
2016-Feb-10 13:24N 39°01' W 123°57'36513.1
2016-Feb-09 09:29N 45°06' W 124°33'1414.9
2016-Feb-09 08:33N 45°19' W 124°29'1514.8
2016-Feb-09 07:34N 45°34' W 124°25'1514.8
2016-Feb-09 06:33N 45°48' W 124°22'1515.2
2016-Feb-09 05:34N 46°03' W 124°18'1413.8
2016-Feb-09 04:33N 46°15' W 124°06'1212.4
2016-Feb-09 03:33N 46°12' W 123°48'1514.7
2016-Feb-09 02:34N 46°16' W 123°28'1212.0
2016-Feb-09 01:34N 46°10' W 123°13'1313.2
2016-Feb-09 00:34N 46°05' W 122°55'1211.8
2016-Feb-08 23:33N 45°55' W 122°49'1413.6
2016-Feb-08 22:33N 45°41' W 122°47'3 3.4
2016-Feb-08 21:31N 45°38' W 122°43'0 0.0
2016-Feb-08 20:28N 45°38' W 122°43'0 0.0
2016-Feb-08 19:31N 45°38' W 122°43'0 0.0
2016-Feb-08 18:28N 45°38' W 122°43'0 0.0
2016-Feb-08 17:25N 45°38' W 122°43'0 0.0
2016-Feb-08 16:31N 45°38' W 122°43'0 0.0
2016-Feb-08 15:16N 45°38' W 122°43'0 0.0
2016-Feb-08 14:22N 45°38' W 122°43'0 0.0
2016-Feb-08 13:28N 45°38' W 122°43'0 0.0
2016-Feb-08 12:32N 45°38' W 122°43'4 4.4
2016-Feb-08 11:33N 45°42' W 122°46'1413.7
2016-Feb-08 10:33N 45°56' W 122°48'1211.8
2016-Feb-08 09:33N 46°06' W 122°57'1212.1
2016-Feb-08 08:33N 46°10' W 123°13'9 9.5
2016-Feb-08 07:33N 46°14' W 123°26'1313.3
2016-Feb-08 06:34N 46°13' W 123°45'1111.4
2016-Feb-08 05:34N 46°15' W 124°01'1211.9
2016-Feb-08 04:33N 46°10' W 124°16'6 6.4
2016-Feb-08 03:33N 46°11' W 124°26'7 6.9
2016-Feb-08 02:33N 46°11' W 124°36'1010.3
2016-Feb-08 01:33N 46°10' W 124°50'10 9.9
2016-Feb-08 00:33N 46°11' W 125°05'10 9.6
2016-Feb-07 23:33N 46°12' W 125°19'10 9.5
2016-Feb-07 22:33N 46°12' W 125°32'7 7.3
2016-Feb-07 21:33N 46°12' W 125°43'6 5.9
2016-Feb-07 20:33N 46°12' W 125°51'1110.7
2016-Feb-07 19:33N 46°13' W 126°07'1110.7
2016-Feb-07 18:33N 46°13' W 126°22'1110.6
2016-Feb-07 17:33N 46°14' W 126°38'1410.5
2016-Feb-07 16:13N 46°14' W 126°58'710.7
2016-Feb-07 15:33N 46°14' W 127°08'1110.6
2016-Feb-07 14:33N 46°15' W 127°23'2210.6
2016-Feb-07 12:28N 46°16' W 127°55'1210.3
2016-Feb-07 11:16N 46°16' W 128°13'  

Dump ship's entire track history